sensor_id;sensor_type;location;lat;lon;timestamp;pressure;altitude;pressure_sealevel;temperature;humidity
6528;BME280;3297;42.664;23.256;2022-08-19T00:01:53;50323.38;;;-139.84;50.43
6528;BME280;3297;42.664;23.256;2022-08-19T00:04:21;50311.72;;;-139.84;51.46
6528;BME280;3297;42.664;23.256;2022-08-19T00:06:47;50311.72;;;-139.84;50.31
6528;BME280;3297;42.664;23.256;2022-08-19T00:09:15;50338.94;;;-139.84;51.02
6528;BME280;3297;42.664;23.256;2022-08-19T00:11:42;50315.63;;;-139.84;50.77
6528;BME280;3297;42.664;23.256;2022-08-19T00:14:11;50364.19;;;-139.84;50.35
6528;BME280;3297;42.664;23.256;2022-08-19T00:16:38;50360.31;;;-139.84;50.33
6528;BME280;3297;42.664;23.256;2022-08-19T00:19:04;50315.63;;;-139.84;50.47
6528;BME280;3297;42.664;23.256;2022-08-19T00:21:30;50354.47;;;-139.84;50.24
6528;BME280;3297;42.664;23.256;2022-08-19T00:23:57;50323.38;;;-139.84;50.64
6528;BME280;3297;42.664;23.256;2022-08-19T00:26:24;50340.88;;;-139.84;50.64
6528;BME280;3297;42.664;23.256;2022-08-19T00:28:50;50321.44;;;-139.84;50.92
6528;BME280;3297;42.664;23.256;2022-08-19T00:31:16;50292.28;;;-139.84;50.94
6528;BME280;3297;42.664;23.256;2022-08-19T00:33:42;50338.94;;;-139.84;50.91
6528;BME280;3297;42.664;23.256;2022-08-19T00:36:11;50337.00;;;-139.84;51.08
6528;BME280;3297;42.664;23.256;2022-08-19T00:38:38;50315.63;;;-139.84;51.32
6528;BME280;3297;42.664;23.256;2022-08-19T00:41:12;50337.00;;;-139.84;51.60
6528;BME280;3297;42.664;23.256;2022-08-19T00:43:38;50342.81;;;-139.84;51.35
6528;BME280;3297;42.664;23.256;2022-08-19T00:46:04;50338.94;;;-139.84;51.37
6528;BME280;3297;42.664;23.256;2022-08-19T00:48:30;50327.28;;;-139.84;51.36
6528;BME280;3297;42.664;23.256;2022-08-19T00:50:57;50338.94;;;-139.84;51.50
6528;BME280;3297;42.664;23.256;2022-08-19T00:53:26;50319.50;;;-139.84;51.49
6528;BME280;3297;42.664;23.256;2022-08-19T00:55:54;50331.16;;;-139.84;51.76
6528;BME280;3297;42.664;23.256;2022-08-19T00:58:22;50335.06;;;-139.84;51.85
6528;BME280;3297;42.664;23.256;2022-08-19T01:00:49;50331.16;;;-139.84;51.83
6528;BME280;3297;42.664;23.256;2022-08-19T01:03:17;50366.16;;;-139.84;51.67
6528;BME280;3297;42.664;23.256;2022-08-19T01:05:44;50323.38;;;-139.84;51.28
6528;BME280;3297;42.664;23.256;2022-08-19T01:08:11;50335.06;;;-139.84;51.45
6528;BME280;3297;42.664;23.256;2022-08-19T01:10:57;50315.63;;;-139.84;51.46
6528;BME280;3297;42.664;23.256;2022-08-19T01:13:30;50300.06;;;-139.84;51.45
6528;BME280;3297;42.664;23.256;2022-08-19T01:16:03;50311.72;;;-139.84;51.45
6528;BME280;3297;42.664;23.256;2022-08-19T01:18:30;50307.84;;;-139.84;51.47
6528;BME280;3297;42.664;23.256;2022-08-19T01:21:05;50311.72;;;-139.84;51.45
6528;BME280;3297;42.664;23.256;2022-08-19T01:23:33;50335.06;;;-139.84;51.41
6528;BME280;3297;42.664;23.256;2022-08-19T01:26:18;50348.66;;;-139.84;51.13
6528;BME280;3297;42.664;23.256;2022-08-19T01:28:46;50309.78;;;-139.84;51.35
6528;BME280;3297;42.664;23.256;2022-08-19T01:31:17;50337.00;;;-139.84;51.54
6528;BME280;3297;42.664;23.256;2022-08-19T01:33:44;50290.34;;;-139.84;51.49
6528;BME280;3297;42.664;23.256;2022-08-19T01:36:14;50335.06;;;-139.84;51.70
6528;BME280;3297;42.664;23.256;2022-08-19T01:38:42;50410.84;;;-139.84;51.63
6528;BME280;3297;42.664;23.256;2022-08-19T01:41:09;50323.38;;;-139.84;51.83
6528;BME280;3297;42.664;23.256;2022-08-19T01:43:35;50323.38;;;-139.84;52.31
6528;BME280;3297;42.664;23.256;2022-08-19T01:46:02;50325.34;;;-139.84;52.13
6528;BME280;3297;42.664;23.256;2022-08-19T01:48:38;50325.34;;;-139.84;52.17
6528;BME280;3297;42.664;23.256;2022-08-19T01:51:05;50370.03;;;-139.84;52.64
6528;BME280;3297;42.664;23.256;2022-08-19T01:53:31;50333.09;;;-139.84;53.57
6528;BME280;3297;42.664;23.256;2022-08-19T01:55:57;50358.38;;;-139.84;54.49
6528;BME280;3297;42.664;23.256;2022-08-19T01:58:27;50319.50;;;-139.84;54.66
6528;BME280;3297;42.664;23.256;2022-08-19T02:00:56;50342.81;;;-139.84;54.27
6528;BME280;3297;42.664;23.256;2022-08-19T02:03:22;50311.72;;;-139.84;54.70
6528;BME280;3297;42.664;23.256;2022-08-19T02:05:54;50319.50;;;-139.84;54.86
6528;BME280;3297;42.664;23.256;2022-08-19T02:08:19;50375.88;;;-139.84;55.04
6528;BME280;3297;42.664;23.256;2022-08-19T02:10:45;50323.38;;;-139.84;55.50
6528;BME280;3297;42.664;23.256;2022-08-19T02:13:12;50342.81;;;-139.84;55.57
6528;BME280;3297;42.664;23.256;2022-08-19T02:15:39;50319.50;;;-139.84;56.51
6528;BME280;3297;42.664;23.256;2022-08-19T02:18:06;50323.38;;;-139.84;56.32
6528;BME280;3297;42.664;23.256;2022-08-19T02:20:33;50300.06;;;-139.84;56.29
6528;BME280;3297;42.664;23.256;2022-08-19T02:22:59;50290.34;;;-139.84;55.76
6528;BME280;3297;42.664;23.256;2022-08-19T02:25:26;50307.84;;;-139.84;55.64
6528;BME280;3297;42.664;23.256;2022-08-19T02:27:52;50337.00;;;-139.84;55.30
6528;BME280;3297;42.664;23.256;2022-08-19T02:30:20;50364.19;;;-139.84;55.13
6528;BME280;3297;42.664;23.256;2022-08-19T02:32:46;50305.91;;;-139.84;55.22
6528;BME280;3297;42.664;23.256;2022-08-19T02:35:15;50362.25;;;-139.84;55.24
6528;BME280;3297;42.664;23.256;2022-08-19T02:37:41;50311.72;;;-139.84;55.37
6528;BME280;3297;42.664;23.256;2022-08-19T02:40:26;50352.53;;;-139.84;57.09
6528;BME280;3297;42.664;23.256;2022-08-19T02:42:52;50315.63;;;-139.84;56.51
6528;BME280;3297;42.664;23.256;2022-08-19T02:45:18;50373.91;;;-139.84;56.01
6528;BME280;3297;42.664;23.256;2022-08-19T02:47:43;50303.94;;;-139.84;56.24
6528;BME280;3297;42.664;23.256;2022-08-19T02:50:09;50370.03;;;-139.84;56.05
6528;BME280;3297;42.664;23.256;2022-08-19T02:52:35;50354.47;;;-139.84;57.36
6528;BME280;3297;42.664;23.256;2022-08-19T02:55:01;50311.72;;;-139.84;57.33
6528;BME280;3297;42.664;23.256;2022-08-19T02:57:27;50354.47;;;-139.84;57.22
6528;BME280;3297;42.664;23.256;2022-08-19T02:59:53;50331.16;;;-139.84;57.13
6528;BME280;3297;42.664;23.256;2022-08-19T03:02:19;50354.47;;;-139.84;58.18
6528;BME280;3297;42.664;23.256;2022-08-19T03:04:45;50313.66;;;-139.84;58.15
6528;BME280;3297;42.664;23.256;2022-08-19T03:07:15;50338.94;;;-139.84;58.60
6528;BME280;3297;42.664;23.256;2022-08-19T03:09:41;50335.06;;;-139.84;59.17
6528;BME280;3297;42.664;23.256;2022-08-19T03:12:08;50340.88;;;-139.84;59.00
6528;BME280;3297;42.664;23.256;2022-08-19T03:14:34;50315.63;;;-139.84;58.79
6528;BME280;3297;42.664;23.256;2022-08-19T03:17:00;50346.72;;;-139.84;59.42
6528;BME280;3297;42.664;23.256;2022-08-19T03:19:26;50346.72;;;-139.84;59.65
6528;BME280;3297;42.664;23.256;2022-08-19T03:21:53;50370.03;;;-139.84;59.99
6528;BME280;3297;42.664;23.256;2022-08-19T03:24:19;50338.94;;;-139.84;60.34
6528;BME280;3297;42.664;23.256;2022-08-19T03:26:51;50323.38;;;-139.84;61.36
6528;BME280;3297;42.664;23.256;2022-08-19T03:29:19;50319.50;;;-139.84;61.33
6528;BME280;3297;42.664;23.256;2022-08-19T03:31:45;50327.28;;;-139.84;61.52
6528;BME280;3297;42.664;23.256;2022-08-19T03:34:13;50333.09;;;-139.84;61.01
6528;BME280;3297;42.664;23.256;2022-08-19T03:36:39;50307.84;;;-139.84;60.89
6528;BME280;3297;42.664;23.256;2022-08-19T03:39:05;50303.94;;;-139.84;60.54
6528;BME280;3297;42.664;23.256;2022-08-19T03:41:35;50335.06;;;-139.84;60.55
6528;BME280;3297;42.664;23.256;2022-08-19T03:44:02;50340.88;;;-139.84;60.92
6528;BME280;3297;42.664;23.256;2022-08-19T03:46:31;50319.50;;;-139.84;60.41
6528;BME280;3297;42.664;23.256;2022-08-19T03:48:58;50313.66;;;-139.84;60.99
6528;BME280;3297;42.664;23.256;2022-08-19T03:51:32;50321.44;;;-139.84;61.58
6528;BME280;3297;42.664;23.256;2022-08-19T03:54:01;50309.78;;;-139.84;62.41
6528;BME280;3297;42.664;23.256;2022-08-19T03:56:28;50356.44;;;-139.84;62.29
6528;BME280;3297;42.664;23.256;2022-08-19T03:58:57;50370.03;;;-139.84;61.74
6528;BME280;3297;42.664;23.256;2022-08-19T04:01:27;50342.81;;;-139.84;62.08
6528;BME280;3297;42.664;23.256;2022-08-19T04:03:53;50302.00;;;-139.84;61.15
6528;BME280;3297;42.664;23.256;2022-08-19T04:06:21;50362.25;;;-139.84;65.90
6528;BME280;3297;42.664;23.256;2022-08-19T04:08:49;50381.69;;;-139.84;63.14
6528;BME280;3297;42.664;23.256;2022-08-19T04:11:21;50393.34;;;-139.84;59.14
6528;BME280;3297;42.664;23.256;2022-08-19T04:13:48;50342.81;;;-139.84;56.44
6528;BME280;3297;42.664;23.256;2022-08-19T04:16:14;50399.19;;;-139.84;55.32
6528;BME280;3297;42.664;23.256;2022-08-19T04:18:40;50364.19;;;-139.84;53.87
6528;BME280;3297;42.664;23.256;2022-08-19T04:21:07;50397.25;;;-139.84;53.09
6528;BME280;3297;42.664;23.256;2022-08-19T04:23:34;50385.59;;;-139.84;52.12
6528;BME280;3297;42.664;23.256;2022-08-19T04:26:01;50389.47;;;-139.84;51.57
6528;BME280;3297;42.664;23.256;2022-08-19T04:28:27;50377.81;;;-139.84;51.27
6528;BME280;3297;42.664;23.256;2022-08-19T04:30:54;50381.69;;;-139.84;50.68
6528;BME280;3297;42.664;23.256;2022-08-19T04:33:23;50364.19;;;-139.84;50.70
6528;BME280;3297;42.664;23.256;2022-08-19T04:35:51;50418.63;;;-139.84;50.42
6528;BME280;3297;42.664;23.256;2022-08-19T04:38:21;50401.13;;;-139.84;50.50
6528;BME280;3297;42.664;23.256;2022-08-19T04:40:51;50397.25;;;-139.84;50.61
6528;BME280;3297;42.664;23.256;2022-08-19T04:43:36;50416.69;;;-139.84;50.12
6528;BME280;3297;42.664;23.256;2022-08-19T04:46:10;50422.50;;;-139.84;49.81
6528;BME280;3297;42.664;23.256;2022-08-19T04:48:37;50397.25;;;-139.84;49.92
6528;BME280;3297;42.664;23.256;2022-08-19T04:51:08;50362.25;;;-139.84;49.83
6528;BME280;3297;42.664;23.256;2022-08-19T04:53:35;50428.34;;;-139.84;49.54
6528;BME280;3297;42.664;23.256;2022-08-19T04:58:34;50397.25;;;-139.84;49.10
6528;BME280;3297;42.664;23.256;2022-08-19T05:00:59;50405.03;;;-139.84;48.43
6528;BME280;3297;42.664;23.256;2022-08-19T05:03:25;50482.78;;;-139.84;48.00
6528;BME280;3297;42.664;23.256;2022-08-19T05:05:51;50422.50;;;-139.84;47.97
6528;BME280;3297;42.664;23.256;2022-08-19T05:08:20;50424.47;;;-139.84;47.30
6528;BME280;3297;42.664;23.256;2022-08-19T05:10:50;50418.63;;;-139.84;47.44
6528;BME280;3297;42.664;23.256;2022-08-19T05:13:18;50401.13;;;-139.84;47.75
6528;BME280;3297;42.664;23.256;2022-08-19T05:15:53;50428.34;;;-139.84;47.88
6528;BME280;3297;42.664;23.256;2022-08-19T05:18:19;50424.47;;;-139.84;47.90
6528;BME280;3297;42.664;23.256;2022-08-19T05:21:09;50473.03;;;-139.84;48.88
6528;BME280;3297;42.664;23.256;2022-08-19T05:23:54;50416.69;;;-139.84;48.80
6528;BME280;3297;42.664;23.256;2022-08-19T05:26:20;50422.50;;;-139.84;47.44
6528;BME280;3297;42.664;23.256;2022-08-19T05:28:45;50389.47;;;-139.84;47.70
6528;BME280;3297;42.664;23.256;2022-08-19T05:31:11;50447.78;;;-139.84;47.25
6528;BME280;3297;42.664;23.256;2022-08-19T05:33:37;50426.41;;;-139.84;47.54
6528;BME280;3297;42.664;23.256;2022-08-19T05:36:05;50451.66;;;-139.84;47.01
6528;BME280;3297;42.664;23.256;2022-08-19T05:38:33;50424.47;;;-139.84;46.89
6528;BME280;3297;42.664;23.256;2022-08-19T05:40:59;50420.56;;;-139.84;47.24
6528;BME280;3297;42.664;23.256;2022-08-19T05:43:24;50401.13;;;-139.84;47.46
6528;BME280;3297;42.664;23.256;2022-08-19T05:45:50;50440.00;;;-139.84;47.89
6528;BME280;3297;42.664;23.256;2022-08-19T05:48:17;50424.47;;;-139.84;48.24
6528;BME280;3297;42.664;23.256;2022-08-19T05:50:46;50426.41;;;-139.84;48.44
6528;BME280;3297;42.664;23.256;2022-08-19T05:53:12;50434.19;;;-139.84;48.19
6528;BME280;3297;42.664;23.256;2022-08-19T05:55:41;50416.69;;;-139.84;47.59
6528;BME280;3297;42.664;23.256;2022-08-19T05:58:07;50467.22;;;-139.84;47.30
6528;BME280;3297;42.664;23.256;2022-08-19T06:00:33;50447.78;;;-139.84;46.66
6528;BME280;3297;42.664;23.256;2022-08-19T06:02:59;50432.22;;;-139.84;47.51
6528;BME280;3297;42.664;23.256;2022-08-19T06:05:29;50451.66;;;-139.84;47.62
6528;BME280;3297;42.664;23.256;2022-08-19T06:07:55;50420.56;;;-139.84;47.26
6528;BME280;3297;42.664;23.256;2022-08-19T06:10:21;50377.81;;;-139.84;47.75
6528;BME280;3297;42.664;23.256;2022-08-19T06:12:48;50443.91;;;-139.84;46.91
6528;BME280;3297;42.664;23.256;2022-08-19T06:15:14;50432.22;;;-139.84;46.46
6528;BME280;3297;42.664;23.256;2022-08-19T06:17:40;50420.56;;;-139.84;45.21
6528;BME280;3297;42.664;23.256;2022-08-19T06:20:09;50455.56;;;-139.84;44.91
6528;BME280;3297;42.664;23.256;2022-08-19T06:22:46;50436.13;;;-139.84;43.99
6528;BME280;3297;42.664;23.256;2022-08-19T06:25:13;50401.13;;;-139.84;43.92
6528;BME280;3297;42.664;23.256;2022-08-19T06:27:39;50445.84;;;-139.84;43.28
6528;BME280;3297;42.664;23.256;2022-08-19T06:30:05;50436.13;;;-139.84;42.05
6528;BME280;3297;42.664;23.256;2022-08-19T06:32:31;50447.78;;;-139.84;41.49
6528;BME280;3297;42.664;23.256;2022-08-19T06:34:57;50463.34;;;-139.84;40.68
6528;BME280;3297;42.664;23.256;2022-08-19T06:37:23;50438.06;;;-139.84;39.75
6528;BME280;3297;42.664;23.256;2022-08-19T06:39:48;50486.66;;;-139.84;40.03
6528;BME280;3297;42.664;23.256;2022-08-19T06:42:14;50465.28;;;-139.84;38.60
6528;BME280;3297;42.664;23.256;2022-08-19T06:44:45;50471.09;;;-139.84;38.81
6528;BME280;3297;42.664;23.256;2022-08-19T06:47:14;50508.03;;;-139.84;38.84
6528;BME280;3297;42.664;23.256;2022-08-19T06:49:41;50471.09;;;-139.84;38.71
6528;BME280;3297;42.664;23.256;2022-08-19T06:52:08;50475.00;;;-139.84;38.04
6528;BME280;3297;42.664;23.256;2022-08-19T06:54:34;50451.66;;;-139.84;38.36
6528;BME280;3297;42.664;23.256;2022-08-19T06:57:01;50459.44;;;-139.84;38.49
6528;BME280;3297;42.664;23.256;2022-08-19T06:59:27;50447.78;;;-139.84;38.45
6528;BME280;3297;42.664;23.256;2022-08-19T07:01:55;50453.59;;;-139.84;38.02
6528;BME280;3297;42.664;23.256;2022-08-19T07:04:26;50434.19;;;-139.84;37.28
6528;BME280;3297;42.664;23.256;2022-08-19T07:07:04;50523.59;;;-139.84;36.81
6528;BME280;3297;42.664;23.256;2022-08-19T07:09:36;50467.22;;;-139.84;35.72
6528;BME280;3297;42.664;23.256;2022-08-19T07:12:05;50478.88;;;-139.84;35.98
6528;BME280;3297;42.664;23.256;2022-08-19T07:14:32;50443.91;;;-139.84;35.44
6528;BME280;3297;42.664;23.256;2022-08-19T07:17:01;50443.91;;;-139.84;35.44
6528;BME280;3297;42.664;23.256;2022-08-19T07:19:26;50455.56;;;-139.84;34.26
6528;BME280;3297;42.664;23.256;2022-08-19T07:21:53;50478.88;;;-139.84;34.17
6528;BME280;3297;42.664;23.256;2022-08-19T07:24:24;50482.78;;;-139.84;33.88
6528;BME280;3297;42.664;23.256;2022-08-19T07:26:52;50475.00;;;-139.84;32.99
6528;BME280;3297;42.664;23.256;2022-08-19T07:29:19;50465.28;;;-139.84;32.57
6528;BME280;3297;42.664;23.256;2022-08-19T07:31:50;50484.72;;;-139.84;33.51
6528;BME280;3297;42.664;23.256;2022-08-19T07:34:16;50455.56;;;-139.84;33.38
6528;BME280;3297;42.664;23.256;2022-08-19T07:36:42;50478.88;;;-139.84;32.58
6528;BME280;3297;42.664;23.256;2022-08-19T07:39:18;50471.09;;;-139.84;32.85
6528;BME280;3297;42.664;23.256;2022-08-19T07:41:45;50440.00;;;-139.84;32.71
6528;BME280;3297;42.664;23.256;2022-08-19T07:44:12;50467.22;;;-139.84;32.25
6528;BME280;3297;42.664;23.256;2022-08-19T07:46:40;50498.31;;;-139.84;31.97
6528;BME280;3297;42.664;23.256;2022-08-19T07:49:08;50447.78;;;-139.84;32.14
6528;BME280;3297;42.664;23.256;2022-08-19T07:51:38;50459.44;;;-139.84;31.79
6528;BME280;3297;42.664;23.256;2022-08-19T07:54:04;50486.66;;;-139.84;31.51
6528;BME280;3297;42.664;23.256;2022-08-19T07:56:30;50463.34;;;-139.84;31.43
6528;BME280;3297;42.664;23.256;2022-08-19T07:58:55;50447.78;;;-139.84;31.35
6528;BME280;3297;42.664;23.256;2022-08-19T08:01:25;50482.78;;;-139.84;31.20
6528;BME280;3297;42.664;23.256;2022-08-19T08:03:52;50490.53;;;-139.84;30.48
6528;BME280;3297;42.664;23.256;2022-08-19T08:06:37;50465.28;;;-139.84;31.03
6528;BME280;3297;42.664;23.256;2022-08-19T08:09:26;50482.78;;;-139.84;29.89
6528;BME280;3297;42.664;23.256;2022-08-19T08:11:55;50476.94;;;-139.84;30.09
6528;BME280;3297;42.664;23.256;2022-08-19T08:14:29;50451.66;;;-139.84;30.45
6528;BME280;3297;42.664;23.256;2022-08-19T08:16:56;50440.00;;;-139.84;29.86
6528;BME280;3297;42.664;23.256;2022-08-19T08:19:24;50453.59;;;-139.84;29.15
6528;BME280;3297;42.664;23.256;2022-08-19T08:21:50;50443.91;;;-139.84;29.32
6528;BME280;3297;42.664;23.256;2022-08-19T08:24:17;50467.22;;;-139.84;29.32
6528;BME280;3297;42.664;23.256;2022-08-19T08:26:43;50445.84;;;-139.84;27.78
6528;BME280;3297;42.664;23.256;2022-08-19T08:29:10;50440.00;;;-139.84;27.70
6528;BME280;3297;42.664;23.256;2022-08-19T08:31:40;50453.59;;;-139.84;28.25
6528;BME280;3297;42.664;23.256;2022-08-19T08:34:06;50434.19;;;-139.84;27.08
6528;BME280;3297;42.664;23.256;2022-08-19T08:36:32;50457.50;;;-139.84;26.46
6528;BME280;3297;42.664;23.256;2022-08-19T08:38:59;50449.72;;;-139.84;27.17
6528;BME280;3297;42.664;23.256;2022-08-19T08:43:55;50455.56;;;-139.84;26.43
6528;BME280;3297;42.664;23.256;2022-08-19T08:46:39;50424.47;;;-139.84;26.66
6528;BME280;3297;42.664;23.256;2022-08-19T08:51:42;50422.50;;;-139.84;26.46
6528;BME280;3297;42.664;23.256;2022-08-19T08:54:12;50403.06;;;-139.84;26.30
6528;BME280;3297;42.664;23.256;2022-08-19T08:56:42;50436.13;;;-139.84;25.93
6528;BME280;3297;42.664;23.256;2022-08-19T08:59:21;50403.06;;;-139.84;26.49
6528;BME280;3297;42.664;23.256;2022-08-19T09:01:47;50432.22;;;-139.84;26.38
6528;BME280;3297;42.664;23.256;2022-08-19T09:04:13;50426.41;;;-139.84;26.08
6528;BME280;3297;42.664;23.256;2022-08-19T09:06:54;50438.06;;;-139.84;25.30
6528;BME280;3297;42.664;23.256;2022-08-19T09:09:30;50401.13;;;-139.84;25.98
6528;BME280;3297;42.664;23.256;2022-08-19T09:14:52;50408.91;;;-139.84;25.53
6528;BME280;3297;42.664;23.256;2022-08-19T09:17:21;50397.25;;;-139.84;25.81
6528;BME280;3297;42.664;23.256;2022-08-19T09:20:19;50432.22;;;-139.84;24.93
6528;BME280;3297;42.664;23.256;2022-08-19T09:22:45;50395.31;;;-139.84;24.68
6528;BME280;3297;42.664;23.256;2022-08-19T09:25:15;50424.47;;;-139.84;24.69
6528;BME280;3297;42.664;23.256;2022-08-19T09:27:42;50397.25;;;-139.84;24.20
6528;BME280;3297;42.664;23.256;2022-08-19T09:30:14;50385.59;;;-139.84;24.62
6528;BME280;3297;42.664;23.256;2022-08-19T09:32:40;50405.03;;;-139.84;25.40
6528;BME280;3297;42.664;23.256;2022-08-19T09:35:08;50414.75;;;-139.84;24.73
6528;BME280;3297;42.664;23.256;2022-08-19T09:37:34;50393.34;;;-139.84;23.95
6528;BME280;3297;42.664;23.256;2022-08-19T09:39:59;50428.34;;;-139.84;24.17
6528;BME280;3297;42.664;23.256;2022-08-19T09:42:25;50416.69;;;-139.84;24.71
6528;BME280;3297;42.664;23.256;2022-08-19T09:44:51;50399.19;;;-139.84;24.71
6528;BME280;3297;42.664;23.256;2022-08-19T09:47:16;50393.34;;;-139.84;24.68
6528;BME280;3297;42.664;23.256;2022-08-19T09:49:42;50395.31;;;-139.84;25.18
6528;BME280;3297;42.664;23.256;2022-08-19T09:52:11;50397.25;;;-139.84;25.33
6528;BME280;3297;42.664;23.256;2022-08-19T09:54:38;50397.25;;;-139.84;24.02
6528;BME280;3297;42.664;23.256;2022-08-19T09:57:04;50418.63;;;-139.84;23.91
6528;BME280;3297;42.664;23.256;2022-08-19T09:59:30;50414.75;;;-139.84;23.87
6528;BME280;3297;42.664;23.256;2022-08-19T10:01:56;50447.78;;;-139.84;23.94
6528;BME280;3297;42.664;23.256;2022-08-19T10:04:22;50377.81;;;-139.84;24.02
6528;BME280;3297;42.664;23.256;2022-08-19T10:06:49;50381.69;;;-139.84;24.32
6528;BME280;3297;42.664;23.256;2022-08-19T10:09:17;50405.03;;;-139.84;24.98
6528;BME280;3297;42.664;23.256;2022-08-19T10:11:44;50428.34;;;-139.84;24.22
6528;BME280;3297;42.664;23.256;2022-08-19T10:14:13;50373.91;;;-139.84;24.23
6528;BME280;3297;42.664;23.256;2022-08-19T10:16:38;50393.34;;;-139.84;24.29
6528;BME280;3297;42.664;23.256;2022-08-19T10:19:06;50366.16;;;-139.84;23.89
6528;BME280;3297;42.664;23.256;2022-08-19T10:21:32;50389.47;;;-139.84;23.26
6528;BME280;3297;42.664;23.256;2022-08-19T10:24:01;50414.75;;;-139.84;23.42
6528;BME280;3297;42.664;23.256;2022-08-19T10:26:32;50424.47;;;-139.84;23.47
6528;BME280;3297;42.664;23.256;2022-08-19T10:28:58;50377.81;;;-139.84;23.76
6528;BME280;3297;42.664;23.256;2022-08-19T10:31:28;50399.19;;;-139.84;23.09
6528;BME280;3297;42.664;23.256;2022-08-19T10:33:55;50381.69;;;-139.84;23.29
6528;BME280;3297;42.664;23.256;2022-08-19T10:36:26;50383.63;;;-139.84;23.41
6528;BME280;3297;42.664;23.256;2022-08-19T10:38:54;50360.31;;;-139.84;23.32
6528;BME280;3297;42.664;23.256;2022-08-19T10:41:24;50401.13;;;-139.84;23.48
6528;BME280;3297;42.664;23.256;2022-08-19T10:43:53;50385.59;;;-139.84;23.66
6528;BME280;3297;42.664;23.256;2022-08-19T10:46:21;50560.50;;;-139.84;23.83
6528;BME280;3297;42.664;23.256;2022-08-19T10:48:48;50405.03;;;-139.84;23.48
6528;BME280;3297;42.664;23.256;2022-08-19T10:51:14;50370.03;;;-139.84;23.61
6528;BME280;3297;42.664;23.256;2022-08-19T10:53:59;50373.91;;;-139.84;23.58
6528;BME280;3297;42.664;23.256;2022-08-19T10:56:26;50370.03;;;-139.84;23.67
6528;BME280;3297;42.664;23.256;2022-08-19T10:59:10;50337.00;;;-139.84;24.10
6528;BME280;3297;42.664;23.256;2022-08-19T11:01:40;50350.59;;;-139.84;23.58
6528;BME280;3297;42.664;23.256;2022-08-19T11:04:06;50381.69;;;-139.84;23.28
6528;BME280;3297;42.664;23.256;2022-08-19T11:06:35;50377.81;;;-139.84;23.20
6528;BME280;3297;42.664;23.256;2022-08-19T11:09:01;50350.59;;;-139.84;23.70
6528;BME280;3297;42.664;23.256;2022-08-19T11:11:27;50379.75;;;-139.84;23.52
6528;BME280;3297;42.664;23.256;2022-08-19T11:13:53;50377.81;;;-139.84;23.54
6528;BME280;3297;42.664;23.256;2022-08-19T11:16:22;50377.81;;;-139.84;23.75
6528;BME280;3297;42.664;23.256;2022-08-19T11:18:53;50366.16;;;-139.84;23.77
6528;BME280;3297;42.664;23.256;2022-08-19T11:21:29;50356.44;;;-139.84;23.74
6528;BME280;3297;42.664;23.256;2022-08-19T11:23:58;50371.97;;;-139.84;23.17
6528;BME280;3297;42.664;23.256;2022-08-19T11:26:26;50389.47;;;-139.84;23.14
6528;BME280;3297;42.664;23.256;2022-08-19T11:28:53;50391.41;;;-139.84;23.44
6528;BME280;3297;42.664;23.256;2022-08-19T11:31:24;50366.16;;;-139.84;23.78
6528;BME280;3297;42.664;23.256;2022-08-19T11:33:51;50381.69;;;-139.84;23.79
6528;BME280;3297;42.664;23.256;2022-08-19T11:36:18;50395.31;;;-139.84;24.42
6528;BME280;3297;42.664;23.256;2022-08-19T11:38:45;50375.88;;;-139.84;24.69
6528;BME280;3297;42.664;23.256;2022-08-19T11:41:10;50364.19;;;-139.84;24.51
6528;BME280;3297;42.664;23.256;2022-08-19T11:43:37;50329.22;;;-139.84;24.87
6528;BME280;3297;42.664;23.256;2022-08-19T11:46:07;50346.72;;;-139.84;24.74
6528;BME280;3297;42.664;23.256;2022-08-19T11:48:34;50346.72;;;-139.84;24.32
6528;BME280;3297;42.664;23.256;2022-08-19T11:51:06;50348.66;;;-139.84;24.24
6528;BME280;3297;42.664;23.256;2022-08-19T11:53:33;50354.47;;;-139.84;24.35
6528;BME280;3297;42.664;23.256;2022-08-19T11:55:59;50395.31;;;-139.84;24.06
6528;BME280;3297;42.664;23.256;2022-08-19T11:58:25;50344.75;;;-139.84;24.10
6528;BME280;3297;42.664;23.256;2022-08-19T12:00:51;50364.19;;;-139.84;23.88
6528;BME280;3297;42.664;23.256;2022-08-19T12:03:17;50354.47;;;-139.84;24.47
6528;BME280;3297;42.664;23.256;2022-08-19T12:05:43;50342.81;;;-139.84;24.60
6528;BME280;3297;42.664;23.256;2022-08-19T12:08:09;50346.72;;;-139.84;24.65
6528;BME280;3297;42.664;23.256;2022-08-19T12:10:35;50362.25;;;-139.84;24.46
6528;BME280;3297;42.664;23.256;2022-08-19T12:13:01;50348.66;;;-139.84;24.22
6528;BME280;3297;42.664;23.256;2022-08-19T12:15:27;50348.66;;;-139.84;24.51
6528;BME280;3297;42.664;23.256;2022-08-19T12:17:55;50327.28;;;-139.84;24.22
6528;BME280;3297;42.664;23.256;2022-08-19T12:20:22;50325.34;;;-139.84;24.39
6528;BME280;3297;42.664;23.256;2022-08-19T12:22:49;50377.81;;;-139.84;24.19
6528;BME280;3297;42.664;23.256;2022-08-19T12:25:14;50377.81;;;-139.84;24.54
6528;BME280;3297;42.664;23.256;2022-08-19T12:27:40;50370.03;;;-139.84;24.66
6528;BME280;3297;42.664;23.256;2022-08-19T12:30:07;50375.88;;;-139.84;24.84
6528;BME280;3297;42.664;23.256;2022-08-19T12:32:33;50381.69;;;-139.84;24.41
6528;BME280;3297;42.664;23.256;2022-08-19T12:34:59;50340.88;;;-139.84;24.38
6528;BME280;3297;42.664;23.256;2022-08-19T12:37:25;50335.06;;;-139.84;24.38
6528;BME280;3297;42.664;23.256;2022-08-19T12:39:50;50362.25;;;-139.84;24.19
6528;BME280;3297;42.664;23.256;2022-08-19T12:42:16;50358.38;;;-139.84;24.55
6528;BME280;3297;42.664;23.256;2022-08-19T12:44:43;50358.38;;;-139.84;24.79
6528;BME280;3297;42.664;23.256;2022-08-19T12:47:11;50338.94;;;-139.84;25.04
6528;BME280;3297;42.664;23.256;2022-08-19T12:49:37;50327.28;;;-139.84;24.65
6528;BME280;3297;42.664;23.256;2022-08-19T12:52:08;50350.59;;;-139.84;25.16
6528;BME280;3297;42.664;23.256;2022-08-19T12:54:35;50358.38;;;-139.84;24.54
6528;BME280;3297;42.664;23.256;2022-08-19T12:57:08;50362.25;;;-139.84;24.90
6528;BME280;3297;42.664;23.256;2022-08-19T12:59:35;50323.38;;;-139.84;24.85
6528;BME280;3297;42.664;23.256;2022-08-19T13:02:02;50272.84;;;-139.84;25.04
6528;BME280;3297;42.664;23.256;2022-08-19T13:04:30;50362.25;;;-139.84;25.31
6528;BME280;3297;42.664;23.256;2022-08-19T13:06:56;50373.91;;;-139.84;24.76